Time;durP1;ratioP1;P1;durP2;ratioP2;P2;SDS_P1;SDS_P2;PMS_P1;PMS_P2;Temp;Humidity;BMP_temperature;BMP_pressure;BME280_temperature;BME280_humidity;BME280_pressure;Samples;Min_cycle;Max_cycle;Signal;HPM_P1;HPM_P2
2022/01/14 03:00:08;;;;;;;33.73;13.57;;;3.00;99.90;;;;;;6244791;22;20095;-88
2022/01/14 03:02:36;;;;;;;32.43;13.43;;;3.00;99.90;;;;;;6218960;23;20008;-89
2022/01/14 03:05:02;;;;;;;36.13;13.70;;;3.00;99.90;;;;;;6218982;23;20019;-88
2022/01/14 03:07:28;;;;;;;36.67;14.63;;;3.00;99.90;;;;;;6218705;23;20000;-88
2022/01/14 03:09:54;;;;;;;30.23;14.03;;;3.00;99.90;;;;;;6188359;23;20450;-88
2022/01/14 03:12:21;;;;;;;32.03;14.47;;;3.00;99.90;;;;;;6188519;23;20013;-88
2022/01/14 03:14:46;;;;;;;32.80;14.90;;;3.00;99.90;;;;;;6213560;23;20032;-89
2022/01/14 03:17:12;;;;;;;28.87;13.20;;;3.00;99.90;;;;;;6213621;23;20055;-88
2022/01/14 03:19:38;;;;;;;31.33;14.27;;;3.00;99.90;;;;;;6212875;23;20007;-88
2022/01/14 03:22:17;;;;;;;32.87;13.93;;;3.00;99.90;;;;;;6213394;23;20009;-89
2022/01/14 03:27:09;;;;;;;38.00;15.10;;;3.00;99.90;;;;;;6215118;23;20331;-90
2022/01/14 03:29:35;;;;;;;39.53;14.57;;;3.00;99.90;;;;;;6212923;23;20004;-89
2022/01/14 03:32:02;;;;;;;42.77;15.33;;;3.00;99.90;;;;;;6188155;23;20009;-89
2022/01/14 03:34:28;;;;;;;40.87;15.20;;;3.00;99.90;;;;;;6188243;23;20012;-89
2022/01/14 03:36:54;;;;;;;36.63;15.30;;;3.00;99.90;;;;;;6213474;23;20347;-89
2022/01/14 03:39:20;;;;;;;41.50;14.33;;;3.00;99.90;;;;;;6188177;23;20001;-89
2022/01/14 03:41:47;;;;;;;34.73;14.20;;;3.00;99.90;;;;;;6213197;23;20004;-89
2022/01/14 03:44:12;;;;;;;40.27;14.97;;;3.00;99.90;;;;;;6213403;23;20005;-89
2022/01/14 03:46:38;;;;;;;41.57;14.93;;;3.00;99.90;;;;;;6213062;23;20020;-89
2022/01/14 03:49:04;;;;;;;49.63;16.80;;;2.90;99.90;;;;;;6187774;23;20022;-90
2022/01/14 03:51:30;;;;;;;41.50;15.60;;;2.90;99.90;;;;;;6213183;23;20019;-89
2022/01/14 03:53:56;;;;;;;40.57;14.23;;;2.90;99.90;;;;;;6213348;23;20557;-89
2022/01/14 03:56:28;;;;;;;29.23;13.87;;;2.90;99.90;;;;;;6189961;23;20066;-89
2022/01/14 03:58:54;;;;;;;31.13;14.77;;;2.90;99.90;;;;;;6192009;23;20016;-89
2022/01/14 04:01:21;;;;;;;36.40;14.17;;;2.90;99.90;;;;;;6219105;23;20035;-89
2022/01/14 04:03:48;;;;;;;35.13;15.20;;;2.90;99.90;;;;;;6218652;23;20007;-89
2022/01/14 04:06:14;;;;;;;35.60;15.67;;;3.00;99.90;;;;;;6189347;23;20004;-89
2022/01/14 04:08:41;;;;;;;37.33;14.90;;;3.00;99.90;;;;;;6214211;23;20339;-89
2022/01/14 04:11:08;;;;;;;34.13;13.87;;;3.00;99.90;;;;;;6214552;23;20000;-89
2022/01/14 04:13:44;;;;;;;38.10;15.40;;;3.00;99.90;;;;;;6213280;23;20420;-89
2022/01/14 04:16:10;;;;;;;35.77;14.03;;;3.00;99.90;;;;;;6213325;23;20066;-88
2022/01/14 04:18:37;;;;;;;33.23;13.90;;;3.00;99.90;;;;;;6187597;23;20008;-89
2022/01/14 04:21:03;;;;;;;26.53;13.20;;;3.00;99.90;;;;;;6213073;23;20005;-89
2022/01/14 04:23:29;;;;;;;32.30;13.53;;;3.00;99.90;;;;;;6188182;23;20031;-89
2022/01/14 04:25:56;;;;;;;30.90;13.97;;;2.90;99.90;;;;;;6213125;23;20051;-89
2022/01/14 04:28:29;;;;;;;30.50;13.20;;;2.90;99.90;;;;;;6212407;23;20324;-89
2022/01/14 04:30:59;;;;;;;30.70;14.20;;;2.90;99.90;;;;;;6213398;23;20064;-89
2022/01/14 04:33:26;;;;;;;32.22;14.10;;;2.90;99.90;;;;;;6212831;23;20013;-89
2022/01/14 04:35:57;;;;;;;31.30;13.27;;;2.90;99.90;;;;;;6187976;23;20005;-90
2022/01/14 04:38:23;;;;;;;29.03;12.37;;;2.90;99.90;;;;;;6214385;23;20000;-90
2022/01/14 04:40:49;;;;;;;30.03;13.03;;;2.90;99.90;;;;;;6212831;23;20079;-89
2022/01/14 04:43:18;;;;;;;30.23;12.90;;;2.90;99.90;;;;;;6187638;23;20039;-90
2022/01/14 04:46:02;;;;;;;29.00;12.65;;;2.90;99.90;;;;;;6213043;23;20013;-89
2022/01/14 04:48:29;;;;;;;32.87;13.73;;;2.90;99.90;;;;;;6212638;23;20439;-90
2022/01/14 04:50:56;;;;;;;37.20;15.67;;;2.90;99.90;;;;;;6213076;23;20000;-90
2022/01/14 04:53:22;;;;;;;34.93;15.50;;;2.80;99.90;;;;;;6189430;23;20026;-89
2022/01/14 04:55:50;;;;;;;38.47;15.00;;;2.80;99.90;;;;;;6188892;23;20009;-89
2022/01/14 04:58:16;;;;;;;35.67;14.63;;;2.90;99.90;;;;;;6213914;23;19997;-89
2022/01/14 05:00:41;;;;;;;38.27;16.23;;;2.90;99.90;;;;;;6187543;23;20008;-89
2022/01/14 05:03:08;;;;;;;30.33;14.47;;;2.90;99.90;;;;;;6187905;23;20015;-90
2022/01/14 05:05:37;;;;;;;29.17;13.97;;;2.90;99.90;;;;;;6212909;23;20068;-89
2022/01/14 05:08:08;;;;;;;31.73;14.65;;;2.90;99.90;;;;;;6213787;23;20015;-90
2022/01/14 05:10:37;;;;;;;33.63;14.17;;;2.90;99.90;;;;;;6212845;23;20419;-89
2022/01/14 05:13:03;;;;;;;35.33;14.77;;;2.90;99.90;;;;;;6187504;23;20450;-89
2022/01/14 05:15:29;;;;;;;38.33;16.20;;;2.90;99.90;;;;;;6212768;23;20019;-89
2022/01/14 05:17:55;;;;;;;36.80;15.97;;;3.00;99.90;;;;;;6212236;23;20453;-89
2022/01/14 05:20:21;;;;;;;38.27;15.27;;;2.90;99.90;;;;;;6188434;23;20083;-89
2022/01/14 05:22:47;;;;;;;35.83;15.90;;;2.90;99.90;;;;;;6187620;23;20012;-90
2022/01/14 05:25:14;;;;;;;38.80;15.90;;;2.90;99.90;;;;;;6187609;23;20016;-89
2022/01/14 05:27:42;;;;;;;37.00;16.17;;;2.90;99.90;;;;;;6187065;23;20012;-89
2022/01/14 05:30:09;;;;;;;36.73;15.77;;;2.90;99.90;;;;;;6212447;23;20020;-89
2022/01/14 05:32:35;;;;;;;39.93;17.00;;;3.00;99.90;;;;;;6212662;23;20013;-90
2022/01/14 05:35:02;;;;;;;38.47;17.00;;;2.90;99.90;;;;;;6187623;23;20020;-90
2022/01/14 05:37:28;;;;;;;39.43;16.80;;;2.90;99.90;;;;;;6212583;23;20035;-90
2022/01/14 05:39:56;;;;;;;40.13;16.03;;;2.80;99.90;;;;;;6212598;23;20000;-90
2022/01/14 05:42:22;;;;;;;40.30;16.73;;;2.80;99.90;;;;;;6212569;23;20008;-90
2022/01/14 05:44:47;;;;;;;34.37;14.90;;;2.80;99.90;;;;;;6212686;23;20119;-89
2022/01/14 05:47:13;;;;;;;34.73;15.17;;;2.80;99.90;;;;;;6212393;23;20447;-89
2022/01/14 05:49:39;;;;;;;35.13;15.47;;;2.80;99.90;;;;;;6211748;23;20013;-90
2022/01/14 05:52:05;;;;;;;38.47;16.50;;;2.80;99.90;;;;;;6188700;23;20015;-90
2022/01/14 05:54:30;;;;;;;43.23;16.97;;;2.90;99.90;;;;;;6188560;23;20036;-89
2022/01/14 05:56:56;;;;;;;45.83;17.27;;;2.90;99.90;;;;;;6214974;23;20155;-90
2022/01/14 05:59:22;;;;;;;46.63;17.43;;;2.90;99.90;;;;;;6188837;23;20088;-89
2022/01/14 06:01:48;;;;;;;45.63;16.60;;;3.00;99.90;;;;;;6214935;23;20001;-89
2022/01/14 06:04:13;;;;;;;49.53;17.30;;;3.00;99.90;;;;;;6215359;23;20055;-89
2022/01/14 06:06:39;;;;;;;44.60;17.33;;;2.90;99.90;;;;;;6191268;23;20009;-88
2022/01/14 06:09:05;;;;;;;49.60;17.03;;;2.90;99.90;;;;;;6214336;23;20009;-89
2022/01/14 06:11:31;;;;;;;39.97;16.47;;;2.90;99.90;;;;;;6189670;23;20051;-90
2022/01/14 06:13:57;;;;;;;39.17;15.23;;;2.90;99.90;;;;;;6214581;23;20368;-89
2022/01/14 06:16:23;;;;;;;39.90;16.23;;;2.90;99.90;;;;;;6189327;23;20043;-90
2022/01/14 06:18:49;;;;;;;37.30;15.30;;;2.90;99.90;;;;;;6213183;23;20009;-89
2022/01/14 06:21:15;;;;;;;38.83;15.67;;;2.90;99.90;;;;;;6214946;23;20054;-89
2022/01/14 06:23:41;;;;;;;37.97;15.60;;;2.90;99.90;;;;;;6214252;23;20432;-89
2022/01/14 06:26:08;;;;;;;43.47;16.13;;;2.80;99.90;;;;;;6214232;23;20004;-89
2022/01/14 06:28:34;;;;;;;42.27;16.43;;;2.80;99.90;;;;;;6213751;23;20012;-89
2022/01/14 06:31:00;;;;;;;43.83;17.00;;;2.80;99.90;;;;;;6188910;23;20012;-89
2022/01/14 06:33:25;;;;;;;43.40;16.83;;;2.80;99.90;;;;;;6214795;23;20012;-90
2022/01/14 06:35:53;;;;;;;43.47;18.20;;;2.90;99.90;;;;;;6215625;23;20091;-89
2022/01/14 06:38:19;;;;;;;46.77;19.07;;;2.90;99.90;;;;;;6213527;23;20051;-89
2022/01/14 06:40:46;;;;;;;42.67;17.30;;;2.90;99.90;;;;;;6188943;23;20007;-89
2022/01/14 06:43:13;;;;;;;47.23;16.80;;;2.90;99.90;;;;;;6214528;23;20095;-89
2022/01/14 06:45:39;;;;;;;49.23;18.27;;;2.90;99.90;;;;;;6214476;23;20013;-89
2022/01/14 06:48:05;;;;;;;41.03;17.03;;;2.90;99.90;;;;;;6215365;23;20050;-89
2022/01/14 06:50:31;;;;;;;40.10;18.03;;;2.90;99.90;;;;;;6213890;23;20094;-89
2022/01/14 06:52:57;;;;;;;42.13;17.47;;;2.90;99.90;;;;;;6188724;23;20020;-89
2022/01/14 06:55:22;;;;;;;39.10;16.90;;;2.90;99.90;;;;;;6213816;23;20020;-89
2022/01/14 06:57:48;;;;;;;40.60;17.33;;;2.90;99.90;;;;;;6213696;23;20007;-89
2022/01/14 07:00:16;;;;;;;45.43;18.80;;;2.90;99.90;;;;;;6197558;23;19992;-89
2022/01/14 07:02:42;;;;;;;48.83;19.20;;;2.90;99.90;;;;;;6232342;23;20055;-89
2022/01/14 07:05:09;;;;;;;62.20;21.97;;;2.90;99.90;;;;;;6214898;23;20435;-91
2022/01/14 07:07:36;;;;;;;65.27;24.20;;;3.00;99.90;;;;;;6188410;23;20016;-89
2022/01/14 07:10:04;;;;;;;63.13;23.77;;;3.00;99.90;;;;;;6213768;23;20044;-89
2022/01/14 07:12:42;;;;;;;65.70;23.57;;;3.00;99.90;;;;;;6213490;23;20032;-90
2022/01/14 07:15:16;;;;;;;73.20;23.10;;;3.00;99.90;;;;;;6213798;23;20439;-89
2022/01/14 07:17:43;;;;;;;75.03;24.13;;;3.00;99.90;;;;;;6213097;23;20013;-90
2022/01/14 07:20:12;;;;;;;69.67;25.00;;;3.00;99.90;;;;;;6213525;23;20083;-89
2022/01/14 07:22:42;;;;;;;;;;;3.00;99.90;;;;;;6189061;23;20028;-89
2022/01/14 07:25:08;;;;;;;;;;;3.00;99.90;;;;;;6164793;23;19904;-89
2022/01/14 07:27:34;;;;;;;69.00;23.87;;;3.00;99.90;;;;;;6163477;23;19899;-89
2022/01/14 07:30:00;;;;;;;63.67;23.03;;;3.10;99.90;;;;;;6189079;23;20005;-88
2022/01/14 07:32:25;;;;;;;57.17;21.80;;;3.00;99.90;;;;;;6213522;23;20004;-89
2022/01/14 07:34:52;;;;;;;66.57;23.73;;;3.00;99.90;;;;;;6213459;23;20012;-90
2022/01/14 07:37:18;;;;;;;70.53;25.23;;;3.00;99.90;;;;;;6213724;23;20020;-89
2022/01/14 07:39:45;;;;;;;74.40;25.00;;;3.00;99.90;;;;;;6212787;23;20008;-89
2022/01/14 07:42:10;;;;;;;70.83;25.53;;;3.00;99.90;;;;;;6188442;23;20031;-89
2022/01/14 07:44:38;;;;;;;80.30;27.03;;;3.00;99.90;;;;;;6213323;23;20005;-89
2022/01/14 07:47:05;;;;;;;73.30;26.30;;;3.00;99.90;;;;;;6213150;23;20013;-89
2022/01/14 07:49:31;;;;;;;74.60;26.50;;;3.00;99.90;;;;;;6188156;23;20039;-89
2022/01/14 07:51:58;;;;;;;66.67;26.13;;;3.10;99.90;;;;;;6188166;23;20016;-89
2022/01/14 07:54:24;;;;;;;68.07;25.03;;;3.10;99.90;;;;;;6188291;23;20009;-89
2022/01/14 07:56:53;;;;;;;59.60;22.97;;;3.10;99.90;;;;;;6213327;23;20013;-90
2022/01/14 07:59:22;;;;;;;63.23;24.37;;;3.10;99.90;;;;;;6212642;23;20000;-89
2022/01/14 08:01:50;;;;;;;60.97;23.63;;;3.10;99.90;;;;;;6213044;23;20055;-89
2022/01/14 08:04:18;;;;;;;55.37;22.33;;;3.10;99.90;;;;;;6213286;23;20390;-89
2022/01/14 08:06:47;;;;;;;51.67;21.00;;;3.10;99.90;;;;;;6213305;23;20043;-90
2022/01/14 08:09:15;;;;;;;58.55;21.98;;;3.10;99.90;;;;;;6212658;23;20016;-89
2022/01/14 08:11:43;;;;;;;56.78;22.63;;;3.10;99.90;;;;;;6187902;23;20016;-90
2022/01/14 08:14:11;;;;;;;60.30;22.70;;;3.10;99.90;;;;;;6212940;23;20009;-90
2022/01/14 08:16:37;;;;;;;60.40;23.43;;;3.20;99.90;;;;;;6187871;23;20015;-89
2022/01/14 08:19:04;;;;;;;58.90;22.53;;;3.20;99.90;;;;;;6212575;23;20004;-89
2022/01/14 08:21:30;;;;;;;64.97;23.67;;;3.20;99.90;;;;;;6212859;23;20092;-90
2022/01/14 08:23:57;;;;;;;60.70;22.70;;;3.20;99.90;;;;;;6212520;23;20012;-88
2022/01/14 08:26:23;;;;;;;67.30;25.57;;;3.30;99.90;;;;;;6187918;23;20008;-87
2022/01/14 08:28:49;;;;;;;69.80;27.70;;;3.40;99.90;;;;;;6212592;23;20004;-85
2022/01/14 08:31:16;;;;;;;65.00;27.07;;;3.40;99.90;;;;;;6212851;23;20009;-85
2022/01/14 08:33:42;;;;;;;63.60;24.97;;;3.30;99.90;;;;;;6211101;23;20092;-87
2022/01/14 08:36:08;;;;;;;64.07;26.17;;;3.30;99.90;;;;;;6212284;23;20005;-86
2022/01/14 08:38:34;;;;;;;71.27;27.27;;;3.30;99.90;;;;;;6212778;23;20011;-86
2022/01/14 08:41:00;;;;;;;59.90;26.57;;;3.30;99.90;;;;;;6186340;23;20000;-84
2022/01/14 08:43:26;;;;;;;61.93;25.37;;;3.30;99.90;;;;;;6214117;23;20005;-88
2022/01/14 08:45:52;;;;;;;62.30;25.40;;;3.30;99.90;;;;;;6212007;23;20020;-87
2022/01/14 08:48:18;;;;;;;56.07;24.80;;;3.20;99.90;;;;;;6186879;23;20501;-87
2022/01/14 08:50:45;;;;;;;54.30;23.00;;;3.20;99.90;;;;;;6211909;23;20051;-87
2022/01/14 08:53:13;;;;;;;50.13;22.23;;;3.20;99.90;;;;;;6211155;23;20012;-87
2022/01/14 08:55:39;;;;;;;51.80;22.63;;;3.20;99.90;;;;;;6211853;23;20347;-89
2022/01/14 08:58:06;;;;;;;44.53;21.03;;;3.10;99.90;;;;;;6187528;23;20059;-90
2022/01/14 09:00:44;;;;;;;48.60;20.93;;;3.20;99.90;;;;;;6201443;22;20004;-87
2022/01/14 09:03:10;;;;;;;46.20;20.07;;;3.20;99.90;;;;;;6251616;22;20012;-87
2022/01/14 09:05:36;;;;;;;45.10;20.33;;;3.20;99.90;;;;;;6274314;22;20027;-89
2022/01/14 09:08:02;;;;;;;42.40;19.77;;;3.30;99.90;;;;;;6274813;22;20004;-90
2022/01/14 09:10:29;;;;;;;41.00;18.93;;;3.30;99.90;;;;;;6258199;22;20001;-86
2022/01/14 09:12:54;;;;;;;45.57;20.70;;;3.30;99.90;;;;;;6242868;23;20004;-86
2022/01/14 09:15:20;;;;;;;45.33;19.67;;;3.20;99.90;;;;;;6242525;23;20012;-86
2022/01/14 09:17:46;;;;;;;36.37;16.50;;;3.30;99.90;;;;;;6268231;22;20012;-89
2022/01/14 09:20:13;;;;;;;39.10;18.20;;;3.30;99.90;;;;;;6242412;22;20015;-87
2022/01/14 09:22:40;;;;;;;45.97;19.70;;;3.30;99.90;;;;;;6242527;23;20004;-87
2022/01/14 09:25:08;;;;;;;39.03;18.43;;;3.30;99.90;;;;;;6269057;22;20019;-86
2022/01/14 09:27:34;;;;;;;41.47;17.97;;;3.30;99.90;;;;;;6268964;22;20079;-87
2022/01/14 09:30:02;;;;;;;41.03;16.77;;;3.30;99.90;;;;;;6244966;22;20086;-86
2022/01/14 09:32:28;;;;;;;38.50;16.63;;;3.40;99.90;;;;;;6270606;22;20090;-86
2022/01/14 09:34:54;;;;;;;36.47;17.30;;;3.30;99.90;;;;;;6244697;23;20086;-87
2022/01/14 09:37:20;;;;;;;38.37;16.90;;;3.30;99.90;;;;;;6270537;22;20012;-87
2022/01/14 09:39:46;;;;;;;38.17;17.00;;;3.30;99.90;;;;;;6244669;22;20004;-86
2022/01/14 09:42:13;;;;;;;36.97;17.30;;;3.30;99.90;;;;;;6244835;23;20458;-86
2022/01/14 09:44:40;;;;;;;41.17;18.23;;;3.30;99.90;;;;;;6244831;23;20315;-87
2022/01/14 09:47:06;;;;;;;47.97;20.17;;;3.30;99.90;;;;;;6244981;23;20090;-86
2022/01/14 09:49:31;;;;;;;45.77;19.27;;;3.30;99.90;;;;;;6244677;22;20443;-87
2022/01/14 09:51:57;;;;;;;50.77;20.73;;;3.30;99.90;;;;;;6244765;23;20023;-87
2022/01/14 09:54:23;;;;;;;51.07;20.30;;;3.30;99.90;;;;;;6270360;22;20017;-87
2022/01/14 09:56:49;;;;;;;51.03;21.30;;;3.30;99.90;;;;;;6270214;22;20000;-86
2022/01/14 09:59:17;;;;;;;48.67;20.77;;;3.30;99.90;;;;;;6244909;22;20004;-87
2022/01/14 10:01:47;;;;;;;48.23;19.97;;;3.40;99.90;;;;;;6244476;23;20008;-87
2022/01/14 10:04:22;;;;;;;47.17;19.70;;;3.30;99.90;;;;;;6245164;23;20008;-87
2022/01/14 10:06:54;;;;;;;44.10;19.00;;;3.40;99.90;;;;;;6244690;23;20012;-87
2022/01/14 10:09:25;;;;;;;44.77;18.80;;;3.40;99.90;;;;;;6270075;22;20039;-87
2022/01/14 10:12:16;;;;;;;46.40;19.40;;;3.40;99.90;;;;;;6244573;23;20008;-86
2022/01/14 10:15:10;;;;;;;55.40;21.47;;;3.40;99.90;;;;;;6244624;23;20355;-87
2022/01/14 10:17:38;;;;;;;54.30;22.23;;;3.40;99.90;;;;;;6244536;23;20008;-87
2022/01/14 10:20:06;;;;;;;52.47;22.00;;;3.50;99.90;;;;;;6244316;22;20004;-87
2022/01/14 10:22:35;;;;;;;59.73;24.67;;;3.50;99.90;;;;;;6270624;22;20051;-91
2022/01/14 10:25:05;;;;;;;64.47;24.37;;;3.50;99.90;;;;;;6244703;23;20015;-90
2022/01/14 10:27:40;;;;;;;65.87;25.37;;;3.50;99.90;;;;;;6245174;23;20485;-91
2022/01/14 10:30:23;;;;;;;61.63;23.67;;;3.60;99.90;;;;;;6244253;22;20406;-89
2022/01/14 10:32:57;;;;;;;61.87;23.50;;;3.60;99.90;;;;;;6270682;22;20342;-89
2022/01/14 10:35:26;;;;;;;55.53;23.07;;;3.60;99.90;;;;;;6270452;22;20043;-87
2022/01/14 10:37:56;;;;;;;64.63;24.50;;;3.60;99.90;;;;;;6243373;23;20004;-86
2022/01/14 10:40:26;;;;;;;63.23;24.13;;;3.60;99.90;;;;;;6244304;22;20292;-87
2022/01/14 10:43:09;;;;;;;61.20;24.97;;;3.60;99.90;;;;;;6270274;22;20064;-87
2022/01/14 10:45:35;;;;;;;59.77;25.23;;;3.60;99.90;;;;;;6270331;22;20087;-89
2022/01/14 10:48:07;;;;;;;63.77;25.13;;;3.60;99.90;;;;;;6243083;23;20008;-85
2022/01/14 10:50:33;;;;;;;62.63;24.77;;;3.60;99.90;;;;;;6266542;22;20011;-87
2022/01/14 10:53:00;;;;;;;63.27;25.10;;;3.70;99.90;;;;;;6267764;22;20008;-87
2022/01/14 10:55:37;;;;;;;68.77;25.83;;;3.60;99.90;;;;;;6243526;23;20354;-88
2022/01/14 10:58:07;;;;;;;64.87;25.53;;;3.60;99.90;;;;;;6268716;22;20434;-87
2022/01/14 11:00:47;;;;;;;72.63;31.05;;;3.70;99.90;;;;;;6242911;22;20004;-87
2022/01/14 11:03:14;;;;;;;67.97;25.93;;;3.70;99.90;;;;;;6243434;23;20008;-89
2022/01/14 11:05:40;;;;;;;67.93;25.83;;;3.70;99.90;;;;;;6245243;23;20012;-87
2022/01/14 11:08:07;;;;;;;63.47;24.97;;;3.70;99.90;;;;;;6244031;23;20008;-90
2022/01/14 11:10:36;;;;;;;62.00;24.77;;;3.70;99.90;;;;;;6243941;22;20012;-89
2022/01/14 11:13:07;;;;;;;69.73;25.83;;;3.70;99.90;;;;;;6271213;22;20004;-88
2022/01/14 11:15:34;;;;;;;73.17;26.63;;;3.70;99.90;;;;;;6245593;23;20015;-85
2022/01/14 11:18:03;;;;;;;65.70;24.87;;;3.70;99.90;;;;;;6244187;23;20426;-86
2022/01/14 11:20:33;;;;;;;67.55;25.92;;;3.70;99.90;;;;;;6268314;22;20461;-86
2022/01/14 11:23:16;;;;;;;65.70;26.43;;;3.80;99.90;;;;;;6245914;23;20050;-90
2022/01/14 11:25:58;;;;;;;72.37;27.43;;;3.80;99.90;;;;;;6242931;23;20019;-89
2022/01/14 11:28:29;;;;;;;71.00;26.47;;;3.80;99.90;;;;;;6243113;23;20018;-90
2022/01/14 11:30:56;;;;;;;69.00;27.40;;;3.80;99.90;;;;;;6242959;22;20012;-90
2022/01/14 11:33:40;;;;;;;66.90;26.10;;;3.80;99.90;;;;;;6267630;22;20008;-90
2022/01/14 11:36:07;;;;;;;72.00;27.10;;;3.90;99.90;;;;;;6241114;23;20004;-89
2022/01/14 11:38:40;;;;;;;73.07;27.00;;;3.90;99.90;;;;;;6241290;23;20107;-90
2022/01/14 11:41:07;;;;;;;70.93;26.03;;;3.80;99.90;;;;;;6266984;22;20012;-88
2022/01/14 11:43:42;;;;;;;68.53;27.70;;;3.90;99.90;;;;;;6242114;23;20105;-90
2022/01/14 11:46:11;;;;;;;69.67;27.13;;;3.90;99.90;;;;;;6267446;22;20019;-89
2022/01/14 11:48:43;;;;;;;65.00;26.27;;;3.90;99.90;;;;;;6267836;22;20086;-90
2022/01/14 11:51:11;;;;;;;70.13;27.00;;;3.90;99.90;;;;;;6267110;22;20095;-90
2022/01/14 11:53:51;;;;;;;79.40;29.55;;;3.90;99.90;;;;;;6268995;22;20233;-91
2022/01/14 11:56:32;;;;;;;73.50;27.97;;;3.90;99.90;;;;;;6244898;23;20004;-91
2022/01/14 11:59:17;;;;;;;75.57;27.90;;;3.90;99.90;;;;;;6269395;22;20012;-91
2022/01/14 12:01:47;;;;;;;73.97;27.87;;;3.90;99.90;;;;;;6270039;22;20012;-91
2022/01/14 12:04:13;;;;;;;83.87;29.03;;;3.90;99.90;;;;;;6244021;23;20012;-91
2022/01/14 12:06:51;;;;;;;82.87;28.60;;;3.90;99.90;;;;;;6244026;23;20079;-90
2022/01/14 12:09:24;;;;;;;80.33;27.33;;;3.90;99.90;;;;;;6268063;22;20327;-91
2022/01/14 12:12:40;;;;;;;85.73;29.23;;;3.90;99.90;;;;;;6243005;23;20004;-89
2022/01/14 12:15:46;;;;;;;76.97;28.03;;;3.90;99.90;;;;;;6245609;23;20040;-91
2022/01/14 12:18:12;;;;;;;79.23;28.73;;;3.90;99.90;;;;;;6244159;23;20027;-92
2022/01/14 12:20:48;;;;;;;77.23;29.03;;;3.90;99.90;;;;;;6243278;22;20004;-88
2022/01/14 12:23:18;;;;;;;75.83;27.70;;;3.90;99.90;;;;;;6242834;23;20030;-89
2022/01/14 12:25:45;;;;;;;;;;;3.90;99.90;;;;;;6242720;23;20461;-89
2022/01/14 12:28:19;;;;;;;77.73;28.30;;;3.90;99.90;;;;;;6216925;23;19911;-89
2022/01/14 12:31:01;;;;;;;72.30;27.63;;;3.90;99.90;;;;;;6243492;22;20316;-89
2022/01/14 12:33:40;;;;;;;72.73;26.80;;;3.90;99.90;;;;;;6261693;23;20012;-89
2022/01/14 12:36:22;;;;;;;79.43;28.88;;;3.90;99.90;;;;;;6280891;22;20030;-89
2022/01/14 12:38:49;;;;;;;81.53;28.67;;;3.90;99.90;;;;;;6280037;22;20019;-89
2022/01/14 12:41:16;;;;;;;82.47;29.97;;;4.00;99.90;;;;;;6281069;22;20008;-90
2022/01/14 12:43:52;;;;;;;84.10;29.13;;;3.90;99.90;;;;;;6280307;22;20019;-90
2022/01/14 12:46:39;;;;;;;81.87;28.60;;;4.00;99.90;;;;;;6255746;23;20485;-90
2022/01/14 12:49:14;;;;;;;86.33;30.40;;;4.00;99.90;;;;;;6256522;22;20012;-90
2022/01/14 12:51:40;;;;;;;81.40;30.70;;;3.90;99.90;;;;;;6255711;23;20038;-90
2022/01/14 12:54:09;;;;;;;83.10;29.57;;;4.00;99.90;;;;;;6254279;23;20008;-90
2022/01/14 12:56:36;;;;;;;87.33;30.13;;;3.90;99.90;;;;;;6253298;23;20004;-89
2022/01/14 12:59:05;;;;;;;89.43;29.63;;;4.00;99.90;;;;;;6249687;22;20032;-88
2022/01/14 13:01:35;;;;;;;81.93;28.77;;;4.00;99.90;;;;;;6240954;23;20094;-87
2022/01/14 13:04:08;;;;;;;83.37;29.53;;;4.00;99.90;;;;;;6270226;22;20427;-89
2022/01/14 13:06:44;;;;;;;83.00;28.83;;;4.00;99.90;;;;;;6270536;22;20014;-90
2022/01/14 13:09:11;;;;;;;88.63;30.17;;;4.10;99.90;;;;;;6269802;22;20008;-92
2022/01/14 13:11:51;;;;;;;93.10;29.33;;;4.10;99.90;;;;;;6245448;23;20015;-91
2022/01/14 13:14:28;;;;;;;92.70;30.17;;;4.10;99.90;;;;;;6245012;22;20035;-90
2022/01/14 13:16:56;;;;;;;91.37;29.87;;;4.10;99.90;;;;;;6242335;23;20031;-89
2022/01/14 13:19:33;;;;;;;95.33;28.63;;;4.10;99.90;;;;;;6243009;22;20000;-91
2022/01/14 13:22:01;;;;;;;83.73;28.73;;;4.10;99.90;;;;;;6243423;23;20019;-90
2022/01/14 13:24:29;;;;;;;82.83;29.07;;;4.10;99.90;;;;;;6269989;22;20161;-91
2022/01/14 13:27:11;;;;;;;85.70;28.17;;;4.10;99.90;;;;;;6244195;23;20454;-88
2022/01/14 13:29:42;;;;;;;86.43;29.47;;;4.10;99.90;;;;;;6244318;22;20043;-91
2022/01/14 13:32:09;;;;;;;96.50;31.40;;;4.10;99.90;;;;;;6244739;23;20173;-91
2022/01/14 13:34:35;;;;;;;85.23;28.27;;;4.10;99.90;;;;;;6244337;23;20062;-91
2022/01/14 13:37:01;;;;;;;81.50;28.50;;;4.10;99.90;;;;;;6270270;22;20004;-91
2022/01/14 13:39:44;;;;;;;95.07;29.33;;;4.10;99.90;;;;;;6270319;22;20446;-88
2022/01/14 13:42:24;;;;;;;89.27;28.80;;;4.20;99.90;;;;;;6244343;23;20035;-91
2022/01/14 13:44:50;;;;;;;82.57;28.13;;;4.10;99.90;;;;;;6244369;23;20067;-91
2022/01/14 13:47:22;;;;;;;82.07;27.83;;;4.10;99.90;;;;;;6244732;23;20047;-91
2022/01/14 13:50:09;;;;;;;87.07;29.13;;;4.10;99.90;;;;;;6244684;22;20095;-91
2022/01/14 13:52:34;;;;;;;90.27;30.47;;;4.10;99.90;;;;;;6270284;22;20016;-88
2022/01/14 13:55:00;;;;;;;88.83;30.23;;;4.10;99.90;;;;;;6244443;23;20096;-88
2022/01/14 13:57:28;;;;;;;96.87;29.90;;;4.10;99.90;;;;;;6244179;23;20034;-89
2022/01/14 14:00:39;;;;;;;88.77;29.77;;;4.20;99.90;;;;;;6244253;22;20071;-88
2022/01/14 14:03:21;;;;;;;88.37;29.47;;;4.20;99.90;;;;;;6243985;22;20012;-92
2022/01/14 14:05:53;;;;;;;85.47;28.70;;;4.20;99.90;;;;;;6269688;22;20457;-92
2022/01/14 14:08:37;;;;;;;86.97;28.80;;;4.20;99.90;;;;;;6269619;22;20056;-92
2022/01/14 14:16:58;;;;;;;75.28;26.95;;;4.20;99.90;;;;;;6270062;22;20360;-92
2022/01/14 14:19:25;;;;;;;84.13;29.57;;;4.20;99.90;;;;;;6269128;22;20027;-91
2022/01/14 14:22:11;;;;;;;86.10;29.40;;;4.20;99.90;;;;;;6244374;23;20011;-91
2022/01/14 14:24:38;;;;;;;90.83;30.67;;;4.20;99.90;;;;;;6182028;23;90732;-91
2022/01/14 14:27:17;;;;;;;77.60;28.20;;;4.20;99.90;;;;;;6166428;23;20007;-95
2022/01/14 14:29:52;;;;;;;93.40;34.75;;;4.20;99.90;;;;;;6202692;23;20067;-93
2022/01/14 14:32:27;;;;;;;107.97;44.70;;;4.20;99.90;;;;;;6202803;23;20048;-94
2022/01/14 14:35:00;;;;;;;100.90;39.43;;;4.20;99.90;;;;;;6209750;23;20028;-94
2022/01/14 14:37:29;;;;;;;90.57;35.17;;;4.20;99.90;;;;;;6211118;23;20013;-91
2022/01/14 14:39:55;;;;;;;89.47;33.17;;;4.20;99.90;;;;;;6193762;23;20059;-91
2022/01/14 14:42:21;;;;;;;99.17;38.97;;;4.30;99.90;;;;;;6186714;23;20005;-91
2022/01/14 14:44:47;;;;;;;95.50;34.97;;;4.20;99.90;;;;;;6185323;23;20011;-92
2022/01/14 14:47:13;;;;;;;86.20;32.33;;;4.20;99.90;;;;;;6188056;23;20001;-89
2022/01/14 14:49:39;;;;;;;81.03;30.60;;;4.20;99.90;;;;;;6184195;23;20012;-90
2022/01/14 14:52:06;;;;;;;91.33;31.03;;;4.20;99.90;;;;;;6183610;23;20001;-90
2022/01/14 14:54:31;;;;;;;87.13;30.40;;;4.30;99.90;;;;;;6184037;23;20428;-90
2022/01/14 14:56:57;;;;;;;89.73;29.67;;;4.30;99.90;;;;;;6185048;23;20016;-90
2022/01/14 14:59:23;;;;;;;81.67;27.77;;;4.30;99.90;;;;;;6184245;23;20071;-92
2022/01/14 15:01:50;;;;;;;82.97;27.37;;;4.20;99.90;;;;;;6202024;22;20013;-88
2022/01/14 15:04:19;;;;;;;76.83;27.87;;;4.20;99.90;;;;;;6211301;23;20060;-88
2022/01/14 15:06:46;;;;;;;79.40;27.70;;;4.30;99.90;;;;;;6237242;23;20008;-87
2022/01/14 15:09:15;;;;;;;76.82;26.20;;;4.40;99.90;;;;;;6237450;23;19997;-85
2022/01/14 15:11:43;;;;;;;78.30;26.30;;;4.40;99.90;;;;;;6213869;23;20009;-86
2022/01/14 15:14:09;;;;;;;83.43;28.23;;;4.40;99.90;;;;;;6211462;23;20018;-86
2022/01/14 15:19:16;;;;;;;82.63;26.80;;;4.40;99.90;;;;;;6212348;23;20055;-83
2022/01/14 15:21:42;;;;;;;79.33;27.93;;;4.30;99.90;;;;;;6217056;23;20005;-87
2022/01/14 15:24:08;;;;;;;87.50;30.07;;;4.30;99.90;;;;;;6245777;23;20284;-87
2022/01/14 15:26:34;;;;;;;84.07;28.63;;;4.30;99.90;;;;;;6239072;23;20301;-85
2022/01/14 15:29:00;;;;;;;91.00;31.00;;;4.30;99.90;;;;;;6238970;23;20055;-84
2022/01/14 15:31:26;;;;;;;82.90;28.47;;;4.30;99.90;;;;;;6236917;23;20036;-84
2022/01/14 15:33:52;;;;;;;81.93;27.93;;;4.40;99.90;;;;;;6238463;23;20040;-85
2022/01/14 15:36:41;;;;;;;87.20;28.60;;;4.40;99.90;;;;;;6216540;23;20032;-86
2022/01/14 15:39:07;;;;;;;92.90;30.10;;;4.50;99.90;;;;;;6211090;23;20096;-86
2022/01/14 15:41:34;;;;;;;88.43;29.93;;;4.50;99.90;;;;;;6208223;23;20231;-86
2022/01/14 15:44:03;;;;;;;87.00;28.23;;;4.50;99.90;;;;;;6235749;23;20001;-85
2022/01/14 15:46:30;;;;;;;81.10;29.58;;;4.50;99.90;;;;;;6214525;23;20012;-86
2022/01/14 15:48:56;;;;;;;88.60;30.37;;;4.50;99.90;;;;;;6240147;23;20064;-85
2022/01/14 15:51:24;;;;;;;91.57;29.63;;;4.40;99.90;;;;;;6239652;23;20245;-85
2022/01/14 15:53:55;;;;;;;89.23;29.67;;;4.40;99.90;;;;;;6240387;23;20024;-85
2022/01/14 15:56:24;;;;;;;87.30;29.57;;;4.40;99.90;;;;;;6241021;23;20000;-85
2022/01/14 15:58:50;;;;;;;83.57;29.52;;;4.40;99.90;;;;;;6240240;23;20004;-85